Turners, Missouri
Current Conditions -  °F | °C
As of 11:52 AM on Monday 26 Jan 2015 (Local Time) from KSGF Reporting Station
Clear Clear  
Wind Chill: 41°   Ceiling: Unl
Heat Index: 46°   Visibility: 10mi
Dew Point: 32°   Wind: 12mph
Humidity: 58%   Direction: 230°SW
Pressure: 29.99"   Gusts: NA
Location:  37.18°N, 93.16°W
Report Text: KSGF 261752Z 23010KT 10SM CLR 08/00 A2999 RMK AO2 SLP162 T00780000 10083 21028 58022
Loading
Personal Weather Stations






























Interactive Weather Map New forecast layout! Learn more

10-Day Weather Forecast

Advertisements
Track Severe Weather on mobile